To NAV CANADA Home Page Login to a new session Search on AWWS site Feedback and Comments Disclaimer Vers la page française équivalente Tips FAQ What's new on the site To the Forecasts and Observations / NOTAM section To "File a Flight Plan" website Publications and other links Update of the User's profile FIC Telephone Numbers My Weather Data Folder Route Weather Data Regional Weather Data Local Weather Data To the Forecasts and Observations / NOTAM section
Request Generated 01/17/2017 at 04:57:17 UTC . Weather information available at that time is displayed.

METAR/TAF

ST. ANTHONY/NL    (show WxCam)

METAR CYAY 170400Z AUTO 13021G26KT 1 1/2SM -SN OVC020 M09/M11 A2979
RMK ICG PRESFR SLP092=
METAR CYAY 170300Z AUTO 13017G23KT 1 3/4SM -SN OVC022 M10/M11 A2984
RMK ICG SLP109=
SPECI CYAY 170229Z AUTO 13016KT 1 3/4SM -SN OVC016 M10/M11 A2987 RMK
ICG INTMT SLP119=
SPECI CYAY 170222Z AUTO 13015G21KT 2SM -SN OVC016 M10/M11 A2987 RMK
ICG SLP121=
SPECI CYAY 170208Z AUTO 12017G22KT 1 3/4SM -SN OVC016 M10/M12 A2989
RMK ICG SLP125=
SPECI CYAY 170204Z AUTO 12016KT 2SM -SN OVC016 M11/M12 A2989 RMK ICG
SLP126=
METAR CYAY 170200Z AUTO 11015KT 1 3/4SM -SN OVC016 M11/M12 A2989 RMK
ICG SLP127=

TAF CYAY 170146Z 1702/1714 13015KT 3SM -SN OVC020 TEMPO 1702/1708 1SM
-SN OVC010
BECMG 1702/1704 14015G25KT
FM170800 17012KT P6SM SCT015 BKN080 TEMPO 1708/1714 4SM -SHSN
BKN015 OVC080
BECMG 1710/1712 20005KT
RMK FCST BASED ON AUTO OBS. NXT FCST BY 170800Z=
Your time UTC time
Weather data provided by Environment Canada and NAV CANADA